Time;durP1;ratioP1;P1;durP2;ratioP2;P2;SDS_P1;SDS_P2;PMS_P1;PMS_P2;Temp;Humidity;BMP_temperature;BMP_pressure;BME280_temperature;BME280_humidity;BME280_pressure;Samples;Min_cycle;Max_cycle;Signal;HPM_P1;HPM_P2
2022/04/29 00:01:23;;;;;;;6.97;6.32;;;;;;;;;;4969215;28;20059;-81
2022/04/29 00:03:53;;;;;;;6.72;5.80;;;;;;;;;;4962522;28;20079;-82
2022/04/29 00:06:19;;;;;;;8.73;7.93;;;;;;;;;;4959964;28;20047;-81
2022/04/29 00:08:45;;;;;;;10.07;8.98;;;;;;;;;;4961679;28;20054;-80
2022/04/29 00:11:11;;;;;;;10.40;8.32;;;;;;;;;;4962655;28;20102;-80
2022/04/29 00:13:37;;;;;;;9.77;8.88;;;;;;;;;;4972946;28;20026;-84
2022/04/29 00:16:05;;;;;;;7.05;6.22;;;;;;;;;;4976193;28;20079;-83
2022/04/29 00:18:31;;;;;;;11.38;8.77;;;;;;;;;;4971860;28;20046;-81
2022/04/29 00:20:57;;;;;;;11.20;10.02;;;;;;;;;;4975174;29;20050;-83
2022/04/29 00:23:23;;;;;;;11.43;10.32;;;;;;;;;;4974279;28;20039;-84
2022/04/29 00:25:48;;;;;;;12.30;10.20;;;;;;;;;;4973662;28;20103;-84
2022/04/29 00:28:14;;;;;;;10.15;9.15;;;;;;;;;;4960784;28;20048;-82
2022/04/29 00:30:40;;;;;;;11.20;10.00;;;;;;;;;;4957748;29;20559;-82
2022/04/29 00:33:06;;;;;;;14.30;11.15;;;;;;;;;;4955018;29;20043;-81
2022/04/29 00:35:32;;;;;;;13.15;11.45;;;;;;;;;;4951493;29;20044;-81
2022/04/29 00:37:58;;;;;;;14.43;11.45;;;;;;;;;;4949120;29;20035;-82
2022/04/29 00:40:25;;;;;;;16.33;11.48;;;;;;;;;;4950767;29;20048;-82
2022/04/29 00:42:50;;;;;;;13.52;12.23;;;;;;;;;;4948997;29;20050;-80
2022/04/29 00:45:17;;;;;;;13.73;12.25;;;;;;;;;;4961120;28;20047;-82
2022/04/29 00:47:43;;;;;;;12.98;11.77;;;;;;;;;;4975440;28;20051;-84
2022/04/29 00:50:09;;;;;;;15.63;12.68;;;;;;;;;;4975736;28;20090;-84
2022/04/29 00:52:36;;;;;;;14.02;12.57;;;;;;;;;;4959989;28;20020;-85
2022/04/29 00:55:05;;;;;;;20.50;16.75;;;;;;;;;;4956302;28;20031;-81
2022/04/29 00:57:33;;;;;;;21.40;15.32;;;;;;;;;;4953409;29;20051;-81
2022/04/29 01:00:01;;;;;;;20.05;15.80;;;;;;;;;;4934783;29;20056;-77
2022/04/29 01:02:28;;;;;;;18.55;12.73;;;;;;;;;;4931586;29;20086;-77
2022/04/29 01:04:59;;;;;;;14.57;7.47;;;;;;;;;;4933596;29;20087;-77
2022/04/29 01:07:27;;;;;;;12.40;11.10;;;;;;;;;;4933656;29;20529;-77
2022/04/29 01:09:53;;;;;;;19.25;12.20;;;;;;;;;;4932338;29;20562;-78
2022/04/29 01:12:19;;;;;;;16.92;13.52;;;;;;;;;;4933528;29;20052;-77
2022/04/29 01:14:45;;;;;;;19.15;13.27;;;;;;;;;;4932540;29;20503;-75
2022/04/29 01:17:11;;;;;;;19.80;14.50;;;;;;;;;;4933360;29;20548;-73
2022/04/29 01:19:37;;;;;;;23.55;15.25;;;;;;;;;;4933508;29;20043;-76
2022/04/29 01:22:03;;;;;;;23.13;15.43;;;;;;;;;;4933023;29;20469;-77
2022/04/29 01:24:29;;;;;;;16.63;14.43;;;;;;;;;;4916457;29;20063;-77
2022/04/29 01:26:55;;;;;;;17.55;13.15;;;;;;;;;;4931500;29;20044;-79
2022/04/29 01:29:21;;;;;;;19.95;14.05;;;;;;;;;;4916230;29;20059;-77
2022/04/29 01:31:48;;;;;;;20.83;14.00;;;;;;;;;;4932120;29;20079;-76
2022/04/29 01:34:21;;;;;;;18.48;13.75;;;;;;;;;;5190896;27;20144;-77
2022/04/29 01:36:48;;;;;;;15.68;13.48;;;;;;;;;;5151192;27;20510;-76
2022/04/29 01:39:13;;;;;;;23.05;13.70;;;;;;;;;;5133765;27;20112;-77
2022/04/29 01:41:40;;;;;;;16.48;13.93;;;;;;;;;;5150975;27;20038;-78
2022/04/29 01:44:05;;;;;;;19.92;15.18;;;;;;;;;;5169357;27;20035;-78
2022/04/29 01:46:31;;;;;;;27.80;16.38;;;;;;;;;;5150930;27;20598;-77
2022/04/29 01:48:57;;;;;;;23.50;17.88;;;;;;;;;;5152415;27;20127;-79
2022/04/29 01:51:31;;;;;;;31.95;18.88;;;;;;;;;;5148840;27;20039;-77
2022/04/29 01:53:57;;;;;;;20.77;17.30;;;;;;;;;;5130084;27;20505;-78
2022/04/29 01:56:32;;;;;;;25.30;17.23;;;;;;;;;;5148730;27;20034;-78
2022/04/29 01:59:00;;;;;;;24.00;16.98;;;;;;;;;;5113258;27;20121;-79
2022/04/29 02:01:28;;;;;;;29.23;18.77;;;;;;;;;;5130220;27;20030;-78
2022/04/29 02:03:54;;;;;;;28.65;18.77;;;;;;;;;;5148669;27;20523;-78
2022/04/29 02:06:21;;;;;;;28.33;20.95;;;;;;;;;;5129859;27;20041;-78
2022/04/29 02:08:48;;;;;;;21.27;17.00;;;;;;;;;;5129966;27;20073;-77
2022/04/29 02:11:17;;;;;;;22.88;17.10;;;;;;;;;;5112232;27;20039;-76
2022/04/29 02:13:46;;;;;;;24.33;17.85;;;;;;;;;;5129741;27;20126;-78
2022/04/29 02:16:22;;;;;;;20.23;15.93;;;;;;;;;;5129538;27;20038;-77
2022/04/29 02:18:48;;;;;;;21.33;14.18;;;;;;;;;;5121001;27;20023;-77
2022/04/29 02:21:14;;;;;;;12.52;10.00;;;;;;;;;;5112136;27;20027;-78
2022/04/29 02:23:40;;;;;;;19.80;15.10;;;;;;;;;;5113100;27;20088;-76
2022/04/29 02:26:06;;;;;;;15.32;13.73;;;;;;;;;;5148192;27;20039;-76
2022/04/29 02:28:32;;;;;;;18.42;13.98;;;;;;;;;;5112834;27;20121;-77
2022/04/29 02:30:58;;;;;;;15.48;12.68;;;;;;;;;;5112386;27;20129;-76
2022/04/29 02:33:24;;;;;;;23.33;16.92;;;;;;;;;;5148120;27;20058;-79
2022/04/29 02:35:50;;;;;;;23.70;16.55;;;;;;;;;;5130105;27;20049;-78
2022/04/29 02:38:16;;;;;;;12.13;9.77;;;;;;;;;;5147841;27;20052;-78
2022/04/29 02:40:42;;;;;;;11.88;10.77;;;;;;;;;;5129708;27;20027;-78
2022/04/29 02:43:08;;;;;;;11.52;10.32;;;;;;;;;;5147520;27;20027;-77
2022/04/29 02:45:34;;;;;;;15.77;10.95;;;;;;;;;;5116299;27;20079;-77
2022/04/29 02:48:00;;;;;;;16.63;14.85;;;;;;;;;;5114473;27;20493;-75
2022/04/29 02:50:27;;;;;;;20.80;16.25;;;;;;;;;;5114846;27;20050;-74
2022/04/29 02:52:58;;;;;;;14.85;11.55;;;;;;;;;;5114715;27;20039;-75
2022/04/29 02:55:24;;;;;;;22.08;16.25;;;;;;;;;;5115138;27;20038;-77
2022/04/29 02:58:03;;;;;;;25.50;17.63;;;;;;;;;;5115065;27;20070;-77
2022/04/29 03:00:29;;;;;;;19.48;17.23;;;;;;;;;;5098224;27;20508;-77
2022/04/29 03:02:55;;;;;;;18.88;15.95;;;;;;;;;;5115005;27;20039;-77
2022/04/29 03:05:22;;;;;;;20.95;17.15;;;;;;;;;;5115150;27;20049;-75
2022/04/29 03:07:48;;;;;;;20.02;18.02;;;;;;;;;;5115171;27;20489;-77
2022/04/29 03:10:15;;;;;;;16.33;14.40;;;;;;;;;;5114759;27;20031;-77
2022/04/29 03:12:42;;;;;;;10.98;9.75;;;;;;;;;;5114568;27;20130;-76
2022/04/29 03:15:37;;;;;;;14.88;13.32;;;;;;;;;;5118416;27;20067;-77
2022/04/29 03:18:18;;;;;;;8.07;7.38;;;;;;;;;;5132881;27;20035;-78
2022/04/29 03:20:44;;;;;;;;;;;;;;;;;;5098351;27;20118;-77
2022/04/29 03:23:10;;;;;;;8.70;7.97;;;;;;;;;;5114455;27;20071;-76
2022/04/29 03:25:41;;;;;;;6.85;6.30;;;;;;;;;;5114768;27;20055;-77
2022/04/29 03:28:07;;;;;;;12.35;10.38;;;;;;;;;;5097459;27;20031;-77
2022/04/29 03:30:33;;;;;;;7.70;6.95;;;;;;;;;;5113245;27;20069;-81
2022/04/29 03:33:00;;;;;;;11.85;10.75;;;;;;;;;;5113905;27;20058;-82
2022/04/29 03:35:40;;;;;;;12.68;11.55;;;;;;;;;;5101842;27;20031;-82
2022/04/29 03:38:08;;;;;;;11.10;9.65;;;;;;;;;;5115655;27;20413;-80
2022/04/29 03:40:34;;;;;;;13.05;11.82;;;;;;;;;;5114223;27;20075;-80
2022/04/29 03:43:00;;;;;;;13.20;11.80;;;;;;;;;;5111332;28;20041;-83
2022/04/29 03:45:26;;;;;;;11.65;10.65;;;;;;;;;;5099977;28;20036;-76
2022/04/29 03:47:54;;;;;;;11.55;10.32;;;;;;;;;;5093264;28;20047;-75
2022/04/29 03:50:34;;;;;;;12.38;11.27;;;;;;;;;;5105865;27;20110;-83
2022/04/29 03:53:18;;;;;;;13.90;10.82;;;;;;;;;;5127534;27;20115;-84
2022/04/29 03:55:52;;;;;;;13.43;12.13;;;;;;;;;;5088189;28;20088;-77
2022/04/29 03:58:18;;;;;;;12.90;11.68;;;;;;;;;;5093522;28;20035;-83
2022/04/29 04:00:49;;;;;;;12.90;11.10;;;;;;;;;;5094896;28;20081;-82
2022/04/29 04:03:27;;;;;;;16.55;11.35;;;;;;;;;;5125885;28;20075;-84
2022/04/29 04:08:42;;;;;;;11.82;10.82;;;;;;;;;;5112614;28;20118;-82
2022/04/29 04:11:09;;;;;;;9.65;8.63;;;;;;;;;;5100171;27;20042;-83
2022/04/29 04:13:35;;;;;;;12.18;9.70;;;;;;;;;;5116950;27;20074;-82
2022/04/29 04:16:06;;;;;;;9.02;8.13;;;;;;;;;;5125326;27;20043;-83
2022/04/29 04:18:35;;;;;;;13.02;11.45;;;;;;;;;;5108791;27;20031;-74
2022/04/29 04:21:02;;;;;;;10.02;9.13;;;;;;;;;;5111183;27;20019;-77
2022/04/29 04:23:28;;;;;;;13.00;11.43;;;;;;;;;;5097217;27;20134;-80
2022/04/29 04:25:56;;;;;;;11.55;10.48;;;;;;;;;;5112128;27;20031;-80
2022/04/29 04:28:24;;;;;;;10.25;9.40;;;;;;;;;;5125132;27;20023;-80
2022/04/29 04:30:59;;;;;;;13.93;9.88;;;;;;;;;;5099487;27;20037;-83
2022/04/29 04:33:35;;;;;;;9.23;8.52;;;;;;;;;;5112455;27;20043;-81
2022/04/29 04:36:01;;;;;;;9.18;8.38;;;;;;;;;;5122946;27;20054;-84
2022/04/29 04:38:27;;;;;;;10.40;8.80;;;;;;;;;;5108511;27;20038;-85
2022/04/29 04:41:04;;;;;;;9.10;8.40;;;;;;;;;;5123628;27;20079;-84
2022/04/29 04:43:30;;;;;;;9.18;8.38;;;;;;;;;;5106535;27;20031;-85
2022/04/29 04:45:59;;;;;;;7.43;6.80;;;;;;;;;;5118993;27;20026;-85
2022/04/29 04:48:42;;;;;;;6.13;5.32;;;;;;;;;;5143109;27;20038;-84
2022/04/29 04:51:13;;;;;;;8.88;6.40;;;;;;;;;;5135035;27;20043;-84
2022/04/29 04:53:45;;;;;;;5.57;5.18;;;;;;;;;;5114387;27;20043;-84
2022/04/29 04:56:11;;;;;;;6.15;5.75;;;;;;;;;;5124681;27;20091;-85
2022/04/29 04:58:37;;;;;;;6.38;5.78;;;;;;;;;;5121364;27;20057;-84
2022/04/29 05:01:03;;;;;;;5.93;5.53;;;;;;;;;;5125980;27;20028;-84
2022/04/29 05:03:52;;;;;;;6.70;5.75;;;;;;;;;;5112673;27;20043;-82
2022/04/29 05:06:51;;;;;;;6.10;5.60;;;;;;;;;;5142539;27;20038;-85
2022/04/29 05:09:17;;;;;;;6.82;6.22;;;;;;;;;;5130871;27;20027;-85
2022/04/29 05:11:43;;;;;;;5.97;5.53;;;;;;;;;;5144665;27;20027;-85
2022/04/29 05:14:19;;;;;;;6.03;5.53;;;;;;;;;;5111517;27;20039;-84
2022/04/29 05:16:47;;;;;;;5.07;4.57;;;;;;;;;;5104687;27;20031;-85
2022/04/29 05:19:31;;;;;;;4.15;3.85;;;;;;;;;;5138380;27;20035;-84
2022/04/29 05:21:57;;;;;;;5.00;4.70;;;;;;;;;;5126487;28;20072;-83
2022/04/29 05:24:24;;;;;;;4.97;4.38;;;;;;;;;;5126022;28;20133;-84
2022/04/29 05:27:08;;;;;;;4.50;4.20;;;;;;;;;;5149523;27;20160;-86
2022/04/29 05:29:54;;;;;;;6.20;5.70;;;;;;;;;;5142092;27;20597;-83
2022/04/29 05:32:43;;;;;;;7.22;5.60;;;;;;;;;;5120954;27;20084;-77
2022/04/29 05:35:28;;;;;;;7.93;5.63;;;;;;;;;;5128871;27;20023;-77
2022/04/29 05:38:12;;;;;;;4.55;4.25;;;;;;;;;;5127100;27;20050;-76
2022/04/29 05:43:23;;;;;;;5.35;4.78;;;;;;;;;;5107920;28;20039;-73
2022/04/29 05:45:48;;;;;;;5.45;4.75;;;;;;;;;;5128395;27;20471;-74
2022/04/29 05:48:15;;;;;;;5.05;4.55;;;;;;;;;;5102946;28;20431;-74
2022/04/29 05:50:42;;;;;;;5.30;4.90;;;;;;;;;;5100562;28;20505;-75
2022/04/29 05:53:08;;;;;;;5.15;4.55;;;;;;;;;;5109276;28;20038;-73
2022/04/29 05:55:36;;;;;;;4.88;4.38;;;;;;;;;;5108461;28;20034;-73
2022/04/29 05:58:02;;;;;;;4.57;4.28;;;;;;;;;;5103193;28;20039;-74
2022/04/29 06:00:27;;;;;;;4.80;4.40;;;;;;;;;;5103350;27;20027;-75
2022/04/29 06:03:04;;;;;;;4.65;4.32;;;;;;;;;;5099167;27;20042;-74
2022/04/29 06:05:31;;;;;;;5.00;4.50;;;;;;;;;;5096029;28;20044;-74
2022/04/29 06:07:57;;;;;;;4.65;4.05;;;;;;;;;;5100988;28;20035;-73
2022/04/29 06:10:41;;;;;;;5.50;4.57;;;;;;;;;;5108300;27;20126;-77
2022/04/29 06:13:12;;;;;;;4.68;4.25;;;;;;;;;;5092107;27;20024;-76
2022/04/29 06:15:59;;;;;;;5.05;4.53;;;;;;;;;;5125709;27;20034;-76
2022/04/29 06:18:44;;;;;;;4.25;3.90;;;;;;;;;;5128241;27;20071;-76
2022/04/29 06:21:31;;;;;;;4.10;3.60;;;;;;;;;;5089849;27;20035;-76
2022/04/29 06:24:07;;;;;;;3.78;3.10;;;;;;;;;;5095485;27;20039;-76
2022/04/29 06:26:34;;;;;;;4.95;4.00;;;;;;;;;;5079916;27;20039;-73
2022/04/29 06:29:00;;;;;;;4.70;3.30;;;;;;;;;;5113848;27;20081;-73
2022/04/29 06:31:26;;;;;;;3.40;3.15;;;;;;;;;;5107476;27;20501;-74
2022/04/29 06:34:10;;;;;;;4.35;3.38;;;;;;;;;;5132519;27;20131;-75
2022/04/29 06:36:36;;;;;;;2.92;2.70;;;;;;;;;;5106022;27;20035;-75
2022/04/29 06:39:02;;;;;;;4.68;2.45;;;;;;;;;;5113530;27;20027;-74
2022/04/29 06:41:57;;;;;;;2.60;2.50;;;;;;;;;;5128991;27;20135;-75
2022/04/29 06:44:43;;;;;;;3.03;2.50;;;;;;;;;;5099653;27;20285;-75
2022/04/29 06:47:29;;;;;;;2.67;1.75;;;;;;;;;;5131001;27;20027;-76
2022/04/29 06:50:13;;;;;;;1.90;1.80;;;;;;;;;;5113366;27;20416;-74
2022/04/29 06:53:15;;;;;;;3.25;1.90;;;;;;;;;;5066540;28;20039;-74
2022/04/29 06:55:41;;;;;;;2.72;2.53;;;;;;;;;;5099918;27;20051;-74
2022/04/29 06:58:07;;;;;;;2.50;2.35;;;;;;;;;;5102863;27;20027;-75
2022/04/29 07:00:38;;;;;;;5.47;2.30;;;;;;;;;;5105026;28;20119;-75
2022/04/29 07:03:04;;;;;;;3.20;2.90;;;;;;;;;;5096134;27;20033;-76
2022/04/29 07:05:33;;;;;;;2.45;2.33;;;;;;;;;;5117444;27;20035;-79
2022/04/29 07:08:04;;;;;;;2.80;2.60;;;;;;;;;;5096660;27;20062;-73
2022/04/29 07:10:49;;;;;;;6.22;2.63;;;;;;;;;;5131449;27;20050;-76
2022/04/29 07:13:33;;;;;;;2.00;1.90;;;;;;;;;;5130668;27;20062;-75
2022/04/29 07:15:59;;;;;;;2.00;1.90;;;;;;;;;;5109181;27;20027;-75
2022/04/29 07:18:51;;;;;;;2.03;1.80;;;;;;;;;;5100831;27;20640;-76
2022/04/29 07:21:18;;;;;;;2.20;2.05;;;;;;;;;;5112558;27;20034;-76
2022/04/29 07:23:44;;;;;;;3.95;2.30;;;;;;;;;;5095679;27;20031;-74
2022/04/29 07:26:11;;;;;;;3.42;1.90;;;;;;;;;;5102781;27;20114;-78
2022/04/29 07:28:37;;;;;;;5.40;1.85;;;;;;;;;;5099850;28;20123;-78
2022/04/29 07:31:03;;;;;;;1.80;1.70;;;;;;;;;;5105064;27;20038;-75
2022/04/29 07:33:52;;;;;;;2.38;2.17;;;;;;;;;;5088906;27;20106;-79
2022/04/29 07:42:07;;;;;;;3.97;2.50;;;;;;;;;;5112099;27;20090;-75
2022/04/29 07:44:34;;;;;;;2.30;2.10;;;;;;;;;;5101645;27;20031;-75
2022/04/29 07:47:01;;;;;;;2.08;1.98;;;;;;;;;;5102096;27;20065;-76
2022/04/29 07:49:38;;;;;;;3.65;1.60;;;;;;;;;;5111649;27;20041;-75
2022/04/29 07:52:05;;;;;;;3.20;2.00;;;;;;;;;;5111935;27;20024;-75
2022/04/29 07:54:34;;;;;;;5.67;1.83;;;;;;;;;;5110449;27;20039;-77
2022/04/29 07:57:00;;;;;;;3.55;2.15;;;;;;;;;;5130336;27;20042;-78
2022/04/29 07:59:26;;;;;;;2.58;1.90;;;;;;;;;;5103496;27;20031;-76
2022/04/29 08:02:11;;;;;;;1.85;1.73;;;;;;;;;;5107069;27;20027;-77
2022/04/29 08:04:37;;;;;;;1.90;1.80;;;;;;;;;;5084688;27;20574;-74
2022/04/29 08:07:04;;;;;;;1.73;1.65;;;;;;;;;;5092592;27;20035;-80
2022/04/29 08:09:31;;;;;;;2.85;1.60;;;;;;;;;;5109721;27;20039;-74
2022/04/29 08:11:58;;;;;;;2.95;1.95;;;;;;;;;;5103268;27;20028;-74
2022/04/29 08:14:27;;;;;;;2.15;2.05;;;;;;;;;;5129751;27;20079;-75
2022/04/29 08:17:12;;;;;;;2.47;1.92;;;;;;;;;;5127089;27;20131;-71
2022/04/29 08:19:43;;;;;;;2.92;1.90;;;;;;;;;;5103441;27;20034;-71
2022/04/29 08:22:21;;;;;;;2.38;2.20;;;;;;;;;;5111006;27;20068;-72
2022/04/29 08:24:48;;;;;;;2.28;1.95;;;;;;;;;;5098091;27;20049;-72
2022/04/29 08:27:14;;;;;;;3.50;2.20;;;;;;;;;;5129423;27;20114;-71
2022/04/29 08:29:40;;;;;;;1.70;1.58;;;;;;;;;;5109594;27;20035;-71
2022/04/29 08:32:07;;;;;;;2.85;1.55;;;;;;;;;;5092653;28;20036;-70
2022/04/29 08:34:36;;;;;;;2.63;1.75;;;;;;;;;;5070373;28;20089;-72
2022/04/29 08:37:04;;;;;;;1.85;1.75;;;;;;;;;;5070481;28;20054;-72
2022/04/29 08:39:32;;;;;;;2.40;2.20;;;;;;;;;;5070418;28;20042;-72
2022/04/29 08:42:00;;;;;;;2.25;2.10;;;;;;;;;;5069964;28;20080;-74
2022/04/29 08:44:27;;;;;;;3.00;1.70;;;;;;;;;;5070444;28;20469;-74
2022/04/29 08:47:04;;;;;;;2.47;2.28;;;;;;;;;;5047486;28;20135;-72
2022/04/29 08:49:34;;;;;;;2.65;2.33;;;;;;;;;;5071846;28;20032;-72
2022/04/29 08:52:03;;;;;;;2.47;1.90;;;;;;;;;;5088546;28;20082;-72
2022/04/29 08:59:59;;;;;;;3.70;1.75;;;;;;;;;;5086616;28;20051;-74
2022/04/29 09:02:28;;;;;;;2.17;1.98;;;;;;;;;;5088635;28;20065;-74
2022/04/29 09:04:56;;;;;;;2.30;2.10;;;;;;;;;;5071628;28;20040;-75
2022/04/29 09:07:42;;;;;;;2.78;1.35;;;;;;;;;;5090230;28;20111;-83
2022/04/29 09:10:08;;;;;;;2.25;1.85;;;;;;;;;;5072480;28;20036;-83
2022/04/29 09:12:34;;;;;;;4.32;1.75;;;;;;;;;;5091436;28;20036;-81
2022/04/29 09:15:10;;;;;;;4.50;1.98;;;;;;;;;;5055210;28;20089;-82
2022/04/29 09:17:38;;;;;;;2.03;1.92;;;;;;;;;;5056082;28;20081;-82
2022/04/29 09:20:05;;;;;;;2.20;1.98;;;;;;;;;;5090932;28;20036;-83
2022/04/29 09:22:32;;;;;;;4.78;2.08;;;;;;;;;;5072638;28;20052;-82
2022/04/29 09:25:08;;;;;;;3.72;1.92;;;;;;;;;;5040985;28;20046;-82
2022/04/29 09:27:52;;;;;;;3.53;1.80;;;;;;;;;;5057337;28;20039;-81
2022/04/29 09:30:19;;;;;;;3.08;2.35;;;;;;;;;;5072671;28;20043;-83
2022/04/29 09:33:18;;;;;;;1.63;1.52;;;;;;;;;;5075927;28;20052;-81
2022/04/29 09:36:24;;;;;;;2.50;2.30;;;;;;;;;;5008212;28;20508;-82
2022/04/29 09:41:38;;;;;;;2.88;2.10;;;;;;;;;;5047535;28;20044;-81
2022/04/29 09:44:04;;;;;;;2.60;1.92;;;;;;;;;;5052791;28;20040;-82
2022/04/29 09:46:30;;;;;;;2.80;2.00;;;;;;;;;;5070636;28;20040;-82
2022/04/29 09:48:57;;;;;;;2.30;1.80;;;;;;;;;;5069296;28;20032;-81
2022/04/29 09:51:42;;;;;;;3.42;2.45;;;;;;;;;;5069519;28;20139;-82
2022/04/29 09:54:08;;;;;;;2.92;2.70;;;;;;;;;;5071451;28;20574;-81
2022/04/29 09:56:34;;;;;;;4.75;2.05;;;;;;;;;;5074884;28;20063;-81
2022/04/29 09:59:00;;;;;;;2.38;2.00;;;;;;;;;;5056629;28;20396;-82
2022/04/29 10:01:26;;;;;;;1.92;1.83;;;;;;;;;;5056624;28;20056;-81
2022/04/29 10:03:52;;;;;;;2.03;1.92;;;;;;;;;;5023969;28;20119;-81
2022/04/29 10:06:18;;;;;;;5.20;2.90;;;;;;;;;;5056062;28;20164;-81
2022/04/29 10:08:44;;;;;;;4.32;2.33;;;;;;;;;;5072701;28;20503;-81
2022/04/29 10:11:10;;;;;;;3.13;2.05;;;;;;;;;;5074139;28;20406;-81
2022/04/29 10:13:35;;;;;;;2.35;2.15;;;;;;;;;;5055537;28;20044;-80
2022/04/29 10:16:13;;;;;;;2.60;1.92;;;;;;;;;;5055731;28;20041;-81
2022/04/29 10:22:08;;;;;;;1.80;1.70;;;;;;;;;;5073574;28;20039;-80
2022/04/29 10:24:34;;;;;;;2.53;1.80;;;;;;;;;;5055525;28;20036;-80
2022/04/29 10:27:00;;;;;;;2.85;1.80;;;;;;;;;;5055517;28;20127;-81
2022/04/29 10:29:26;;;;;;;1.38;1.38;;;;;;;;;;5073325;28;20122;-81
2022/04/29 10:32:10;;;;;;;2.00;1.90;;;;;;;;;;5038728;28;20032;-81
2022/04/29 10:34:36;;;;;;;2.17;1.77;;;;;;;;;;5055299;28;20052;-80
2022/04/29 10:37:11;;;;;;;3.25;1.90;;;;;;;;;;5063095;28;20032;-80
2022/04/29 10:39:37;;;;;;;3.88;3.58;;;;;;;;;;5066312;28;20375;-81
2022/04/29 10:42:06;;;;;;;2.05;1.85;;;;;;;;;;5102193;28;20502;-81
2022/04/29 10:44:32;;;;;;;1.90;1.80;;;;;;;;;;5075485;28;20036;-80
2022/04/29 10:47:21;;;;;;;1.80;1.70;;;;;;;;;;5093460;28;20040;-81
2022/04/29 10:50:39;;;;;;;2.10;1.88;;;;;;;;;;5093169;28;20465;-79
2022/04/29 10:53:24;;;;;;;2.30;1.58;;;;;;;;;;5074338;28;20047;-80
2022/04/29 10:55:54;;;;;;;2.45;1.90;;;;;;;;;;5042173;28;20148;-80
2022/04/29 10:58:35;;;;;;;2.80;1.97;;;;;;;;;;5074343;28;20043;-79
2022/04/29 11:01:14;;;;;;;1.95;1.77;;;;;;;;;;5074477;28;20036;-81
2022/04/29 11:03:41;;;;;;;3.25;2.90;;;;;;;;;;5079607;28;20036;-80
2022/04/29 11:06:08;;;;;;;4.68;2.00;;;;;;;;;;5067969;28;20105;-76
2022/04/29 11:08:34;;;;;;;2.28;2.00;;;;;;;;;;5090081;28;20127;-78
2022/04/29 11:11:00;;;;;;;1.83;1.73;;;;;;;;;;5035977;28;20178;-77
2022/04/29 11:13:35;;;;;;;2.50;1.90;;;;;;;;;;5070703;28;20040;-78
2022/04/29 11:16:20;;;;;;;2.28;2.00;;;;;;;;;;5072372;28;20490;-79
2022/04/29 11:19:18;;;;;;;2.00;1.90;;;;;;;;;;5088793;28;20036;-77
2022/04/29 11:24:42;;;;;;;2.50;2.30;;;;;;;;;;5086631;28;20493;-77
2022/04/29 11:27:09;;;;;;;7.38;2.30;;;;;;;;;;5057115;28;20028;-78
2022/04/29 11:29:42;;;;;;;4.13;1.90;;;;;;;;;;5072196;28;20039;-77
2022/04/29 11:32:37;;;;;;;3.03;2.15;;;;;;;;;;5085451;28;20052;-78
2022/04/29 11:35:04;;;;;;;2.70;2.50;;;;;;;;;;5072013;28;20530;-81
2022/04/29 11:37:34;;;;;;;2.08;1.90;;;;;;;;;;5094148;28;20063;-81
2022/04/29 11:40:01;;;;;;;1.90;1.80;;;;;;;;;;5091558;28;20067;-81
2022/04/29 11:42:27;;;;;;;2.25;2.03;;;;;;;;;;5054324;28;20066;-81
2022/04/29 11:44:53;;;;;;;2.00;1.90;;;;;;;;;;5089195;28;20075;-81
2022/04/29 11:47:22;;;;;;;1.83;1.73;;;;;;;;;;5053818;28;20016;-80
2022/04/29 11:49:48;;;;;;;1.80;1.70;;;;;;;;;;5070146;28;20047;-80
2022/04/29 11:52:30;;;;;;;3.15;1.92;;;;;;;;;;5089352;28;20032;-79
2022/04/29 11:55:00;;;;;;;1.73;1.63;;;;;;;;;;5089305;28;20047;-81
2022/04/29 11:57:26;;;;;;;2.30;2.20;;;;;;;;;;5089204;28;20047;-81
2022/04/29 11:59:52;;;;;;;2.85;2.60;;;;;;;;;;5082270;28;20517;-81
2022/04/29 12:02:19;;;;;;;4.00;2.13;;;;;;;;;;5089633;28;20035;-80
2022/04/29 12:04:58;;;;;;;2.45;2.30;;;;;;;;;;5088946;28;20032;-75
2022/04/29 12:07:24;;;;;;;2.25;2.08;;;;;;;;;;5071043;28;20152;-76
2022/04/29 12:09:51;;;;;;;3.92;2.40;;;;;;;;;;5068413;28;20031;-78
2022/04/29 12:12:24;;;;;;;2.30;2.10;;;;;;;;;;5063500;28;20119;-76
2022/04/29 12:14:49;;;;;;;2.85;2.25;;;;;;;;;;5071238;28;20089;-77
2022/04/29 12:17:16;;;;;;;3.75;2.28;;;;;;;;;;5069577;28;20121;-80
2022/04/29 12:19:42;;;;;;;4.03;2.25;;;;;;;;;;5087313;28;20036;-72
2022/04/29 12:22:09;;;;;;;3.30;2.28;;;;;;;;;;5089922;28;20061;-73
2022/04/29 12:24:43;;;;;;;2.55;2.20;;;;;;;;;;5070754;28;20039;-73
2022/04/29 12:27:10;;;;;;;2.25;2.15;;;;;;;;;;5089668;28;20467;-72
2022/04/29 12:29:39;;;;;;;2.70;2.28;;;;;;;;;;5088569;28;20070;-73
2022/04/29 12:35:09;;;;;;;2.53;2.33;;;;;;;;;;5037447;28;20048;-73
2022/04/29 12:37:35;;;;;;;4.72;2.22;;;;;;;;;;5088864;28;20491;-73
2022/04/29 12:40:11;;;;;;;2.60;2.35;;;;;;;;;;5086304;28;20031;-73
2022/04/29 12:42:39;;;;;;;3.40;2.38;;;;;;;;;;5054921;28;20517;-73
2022/04/29 12:45:22;;;;;;;2.13;2.03;;;;;;;;;;5071115;28;20144;-72
2022/04/29 12:48:16;;;;;;;2.25;1.48;;;;;;;;;;5082760;28;20589;-75
2022/04/29 12:50:47;;;;;;;2.50;2.30;;;;;;;;;;5083788;28;20489;-73
2022/04/29 12:53:19;;;;;;;2.38;2.15;;;;;;;;;;5070363;28;20039;-72
2022/04/29 12:55:50;;;;;;;3.70;2.35;;;;;;;;;;5069722;28;20040;-72
2022/04/29 12:58:15;;;;;;;2.73;2.53;;;;;;;;;;5088727;28;20047;-72
2022/04/29 13:00:42;;;;;;;2.15;2.05;;;;;;;;;;5070194;28;20031;-73
2022/04/29 13:03:08;;;;;;;3.65;2.47;;;;;;;;;;5088629;28;20061;-73
2022/04/29 13:05:34;;;;;;;4.95;2.45;;;;;;;;;;5088276;28;20440;-73
2022/04/29 13:08:00;;;;;;;2.38;2.17;;;;;;;;;;5088818;28;20036;-72
2022/04/29 13:10:26;;;;;;;2.60;2.42;;;;;;;;;;5088311;28;20036;-72
2022/04/29 13:12:54;;;;;;;2.63;2.40;;;;;;;;;;5087967;28;20498;-73
2022/04/29 13:15:26;;;;;;;4.60;2.33;;;;;;;;;;5086355;28;20044;-74
2022/04/29 13:17:52;;;;;;;2.33;2.20;;;;;;;;;;5087960;28;20032;-73
2022/04/29 13:20:18;;;;;;;3.35;2.00;;;;;;;;;;5070576;28;20402;-73
2022/04/29 13:22:44;;;;;;;3.10;2.60;;;;;;;;;;5088053;28;20074;-72
2022/04/29 13:25:11;;;;;;;2.85;2.47;;;;;;;;;;5053190;28;20032;-72
2022/04/29 13:27:37;;;;;;;2.60;2.40;;;;;;;;;;5069956;28;20050;-75
2022/04/29 13:30:05;;;;;;;3.05;2.03;;;;;;;;;;5067634;28;20086;-75
2022/04/29 13:32:31;;;;;;;2.38;2.20;;;;;;;;;;5067715;28;20510;-74
2022/04/29 13:34:57;;;;;;;2.33;2.13;;;;;;;;;;5075246;28;20045;-76
2022/04/29 13:37:23;;;;;;;2.05;1.95;;;;;;;;;;5077048;28;20581;-75
2022/04/29 13:39:49;;;;;;;9.18;2.33;;;;;;;;;;5067206;28;20501;-74
2022/04/29 13:42:18;;;;;;;2.80;2.15;;;;;;;;;;5067831;28;20392;-73
2022/04/29 13:44:44;;;;;;;1.90;1.80;;;;;;;;;;5067675;28;20082;-75
2022/04/29 13:47:11;;;;;;;2.00;1.90;;;;;;;;;;5069508;28;20437;-74
2022/04/29 13:49:37;;;;;;;2.17;1.90;;;;;;;;;;5069177;28;20072;-74
2022/04/29 13:54:47;;;;;;;4.00;2.20;;;;;;;;;;5069144;28;20048;-74
2022/04/29 13:57:13;;;;;;;3.13;2.50;;;;;;;;;;5069349;28;20419;-75
2022/04/29 13:59:39;;;;;;;1.98;1.80;;;;;;;;;;5069276;28;20395;-74
2022/04/29 14:02:05;;;;;;;1.80;1.70;;;;;;;;;;5068585;28;20041;-75
2022/04/29 14:04:31;;;;;;;2.40;2.08;;;;;;;;;;5051030;28;20453;-74
2022/04/29 14:06:57;;;;;;;1.80;1.75;;;;;;;;;;5082805;28;20032;-75
2022/04/29 14:09:23;;;;;;;1.98;1.88;;;;;;;;;;5088758;28;20517;-76
2022/04/29 14:11:50;;;;;;;2.20;2.10;;;;;;;;;;5069027;28;20097;-74
2022/04/29 14:14:16;;;;;;;2.95;2.40;;;;;;;;;;5083222;28;20108;-75
2022/04/29 14:16:42;;;;;;;3.47;2.17;;;;;;;;;;5052839;28;20036;-74
2022/04/29 14:19:07;;;;;;;2.50;2.30;;;;;;;;;;5087802;28;20123;-75
2022/04/29 14:21:33;;;;;;;1.92;1.83;;;;;;;;;;5087779;28;20085;-75
2022/04/29 14:23:59;;;;;;;2.30;2.10;;;;;;;;;;5088015;28;20043;-74
2022/04/29 14:26:25;;;;;;;2.03;1.92;;;;;;;;;;5088081;28;20027;-75
2022/04/29 14:28:51;;;;;;;5.18;2.40;;;;;;;;;;5069075;28;20043;-75
2022/04/29 14:31:16;;;;;;;2.28;2.00;;;;;;;;;;5087668;28;20035;-74
2022/04/29 14:33:43;;;;;;;2.65;2.00;;;;;;;;;;5087174;28;20147;-74
2022/04/29 14:36:11;;;;;;;3.03;2.28;;;;;;;;;;5087818;28;20527;-74
2022/04/29 14:38:37;;;;;;;2.75;1.95;;;;;;;;;;5087068;28;20051;-74
2022/04/29 14:41:03;;;;;;;2.25;2.15;;;;;;;;;;5071098;28;20039;-74
2022/04/29 14:43:29;;;;;;;2.30;2.20;;;;;;;;;;5091327;28;20071;-73
2022/04/29 14:45:55;;;;;;;5.82;2.60;;;;;;;;;;5073376;28;20039;-74
2022/04/29 14:48:21;;;;;;;2.33;2.15;;;;;;;;;;5091185;28;20035;-75
2022/04/29 14:50:47;;;;;;;5.70;2.13;;;;;;;;;;5091213;28;20031;-74
2022/04/29 14:53:13;;;;;;;1.70;1.60;;;;;;;;;;5090981;28;20040;-75
2022/04/29 14:55:39;;;;;;;2.50;2.30;;;;;;;;;;5091158;28;20065;-74
2022/04/29 14:58:04;;;;;;;1.80;1.70;;;;;;;;;;5091157;28;20036;-75
2022/04/29 15:00:30;;;;;;;3.85;2.55;;;;;;;;;;5091154;28;20069;-75
2022/04/29 15:02:56;;;;;;;3.15;2.25;;;;;;;;;;5073003;28;20096;-74
2022/04/29 15:05:22;;;;;;;2.42;2.08;;;;;;;;;;5072702;28;20032;-74
2022/04/29 15:07:48;;;;;;;1.60;1.50;;;;;;;;;;5091010;28;20448;-74
2022/04/29 15:15:48;;;;;;;2.00;1.90;;;;;;;;;;5075588;28;20096;-75
2022/04/29 15:18:16;;;;;;;1.65;1.55;;;;;;;;;;5090683;28;20040;-75
2022/04/29 15:20:41;;;;;;;1.73;1.63;;;;;;;;;;5090723;28;20034;-75
2022/04/29 15:23:07;;;;;;;3.55;2.10;;;;;;;;;;5072889;28;20110;-75
2022/04/29 15:25:33;;;;;;;1.67;1.58;;;;;;;;;;5090453;28;20517;-76
2022/04/29 15:27:59;;;;;;;2.25;1.80;;;;;;;;;;5055889;28;20035;-75
2022/04/29 15:30:35;;;;;;;2.88;1.90;;;;;;;;;;5072312;28;20031;-74